Time;durP1;ratioP1;P1;durP2;ratioP2;P2;SDS_P1;SDS_P2;PMS_P1;PMS_P2;Temp;Humidity;BMP_temperature;BMP_pressure;BME280_temperature;BME280_humidity;BME280_pressure;Samples;Min_cycle;Max_cycle;Signal;HPM_P1;HPM_P2
2023/08/03 00:02:14;;;;;;;4.60;3.10;;;;;;;26.49;67.91;100844.45;106984;1266;25368;-51
2023/08/03 00:04:41;;;;;;;6.70;3.20;;;;;;;26.47;67.89;100842.07;107144;1260;25362;-51
2023/08/03 00:07:08;;;;;;;6.50;3.30;;;;;;;26.47;67.92;100841.54;107194;1263;25412;-52
2023/08/03 00:09:35;;;;;;;6.20;3.20;;;;;;;26.47;68.10;100839.80;107081;1262;24299;-52
2023/08/03 00:12:02;;;;;;;8.30;3.70;;;;;;;26.47;68.19;100839.79;107185;1262;25491;-52
2023/08/03 00:14:29;;;;;;;7.20;4.00;;;;;;;26.46;68.15;100834.40;107145;1263;25452;-52
2023/08/03 00:16:56;;;;;;;5.40;3.30;;;;;;;26.45;68.07;100832.66;107133;1266;25408;-52
2023/08/03 00:19:23;;;;;;;4.20;3.20;;;;;;;26.45;68.22;100832.84;107010;1267;25414;-52
2023/08/03 00:21:50;;;;;;;7.10;3.50;;;;;;;26.44;68.37;100834.48;107226;1263;25405;-52
2023/08/03 00:24:18;;;;;;;5.60;3.20;;;;;;;26.45;68.27;100832.83;107233;1266;25418;-52
2023/08/03 00:26:44;;;;;;;5.20;3.20;;;;;;;26.45;68.34;100833.02;107063;1266;25341;-52
2023/08/03 00:29:11;;;;;;;5.00;3.20;;;;;;;26.45;68.36;100835.67;106916;1266;25415;-52
2023/08/03 00:31:38;;;;;;;7.50;3.60;;;;;;;26.45;68.45;100835.67;107120;1260;25449;-51
2023/08/03 00:34:06;;;;;;;6.00;3.10;;;;;;;26.45;68.49;100841.18;106971;1253;26507;-52
2023/08/03 00:36:33;;;;;;;5.20;2.90;;;;;;;26.44;68.50;100842.48;106656;1272;25484;-52
2023/08/03 00:39:00;;;;;;;7.30;3.40;;;;;;;26.45;68.62;100845.30;106905;1257;25347;-54
2023/08/03 00:41:27;;;;;;;4.60;2.80;;;;;;;26.46;68.64;100842.59;106887;1270;25365;-52
2023/08/03 00:43:55;;;;;;;8.00;3.60;;;;;;;26.46;68.71;100838.66;106953;1255;22528;-52
2023/08/03 00:46:22;;;;;;;5.80;2.80;;;;;;;26.45;68.78;100838.67;107101;1263;25408;-51
2023/08/03 00:48:49;;;;;;;4.10;3.00;;;;;;;26.45;68.82;100834.95;107150;1269;25366;-52
2023/08/03 00:51:17;;;;;;;4.70;3.10;;;;;;;26.45;68.72;100834.95;107062;1270;25481;-52
2023/08/03 00:53:45;;;;;;;4.80;3.30;;;;;;;26.45;68.72;100836.91;107251;1266;25254;-52
2023/08/03 00:56:16;;;;;;;5.40;2.90;;;;;;;26.46;68.72;100839.19;107129;1266;25369;-53
2023/08/03 00:58:43;;;;;;;6.80;3.20;;;;;;;26.46;68.87;100836.86;107118;1254;25359;-51
2023/08/03 01:01:10;;;;;;;6.60;2.90;;;;;;;26.46;68.69;100831.70;106813;1267;25341;-52
2023/08/03 01:03:37;;;;;;;4.00;3.10;;;;;;;26.46;68.80;100831.67;107142;1263;25341;-53
2023/08/03 01:06:04;;;;;;;6.40;3.30;;;;;;;26.46;68.75;100832.73;106915;1266;25411;-51
2023/08/03 01:08:32;;;;;;;3.00;2.70;;;;;;;26.46;68.77;100829.75;107111;1257;23267;-52
2023/08/03 01:10:59;;;;;;;6.60;3.10;;;;;;;26.46;68.83;100833.33;107089;1254;25368;-52
2023/08/03 01:13:26;;;;;;;5.20;3.50;;;;;;;26.46;68.81;100837.90;107198;1256;25414;-51
2023/08/03 01:15:54;;;;;;;3.50;2.80;;;;;;;26.46;68.87;100835.79;107041;1270;25338;-52
2023/08/03 01:18:21;;;;;;;3.90;3.10;;;;;;;26.45;68.76;100838.00;107149;1254;25340;-52
2023/08/03 01:20:48;;;;;;;4.80;3.60;;;;;;;26.45;68.80;100844.23;107187;1254;25332;-52
2023/08/03 01:23:15;;;;;;;6.50;3.50;;;;;;;26.43;68.83;100845.45;107154;1264;25417;-52
2023/08/03 01:25:42;;;;;;;3.20;2.50;;;;;;;26.43;68.76;100847.04;107165;1257;22700;-52
2023/08/03 01:28:10;;;;;;;3.40;2.70;;;;;;;26.42;68.62;100851.98;106933;1266;25284;-52
2023/08/03 01:30:37;;;;;;;4.90;3.40;;;;;;;26.42;68.70;100853.76;107050;1272;25426;-52
2023/08/03 01:33:04;;;;;;;3.10;2.80;;;;;;;26.42;68.70;100853.05;107091;1269;25359;-52
2023/08/03 01:35:31;;;;;;;4.10;3.10;;;;;;;26.42;68.67;100856.25;107145;1260;25482;-52
2023/08/03 01:37:58;;;;;;;5.00;3.40;;;;;;;26.41;68.73;100854.89;107258;1263;25337;-52
2023/08/03 01:40:25;;;;;;;4.70;3.60;;;;;;;26.41;68.68;100854.56;107069;1264;25417;-52
2023/08/03 01:42:52;;;;;;;4.90;3.30;;;;;;;26.40;68.79;100856.55;107135;1253;25341;-52
2023/08/03 01:45:19;;;;;;;4.70;3.30;;;;;;;26.40;68.81;100854.06;107182;1265;25328;-52
2023/08/03 01:47:46;;;;;;;4.40;3.00;;;;;;;26.42;68.75;100854.84;107116;1266;25401;-52
2023/08/03 01:50:13;;;;;;;3.70;3.30;;;;;;;26.42;68.79;100857.29;107129;1263;25427;-51
2023/08/03 01:52:40;;;;;;;4.20;3.00;;;;;;;26.43;68.79;100858.83;107135;1256;25477;-52
2023/08/03 01:55:08;;;;;;;4.10;3.00;;;;;;;26.43;68.87;100857.58;107119;1257;25356;-52
2023/08/03 01:57:35;;;;;;;5.20;3.50;;;;;;;26.44;68.85;100852.71;107078;1263;25405;-52
2023/08/03 02:00:03;;;;;;;6.90;3.00;;;;;;;26.44;68.71;100850.36;107163;1266;25341;-52
2023/08/03 02:02:39;;;;;;;5.10;3.30;;;;;;;26.45;68.77;100854.87;106955;1266;25341;-52
2023/08/03 02:05:07;;;;;;;5.20;3.80;;;;;;;26.46;68.69;100855.38;107150;1252;25337;-52
2023/08/03 02:07:53;;;;;;;4.50;3.40;;;;;;;26.46;68.79;100859.98;107105;1263;25382;-52
2023/08/03 02:10:22;;;;;;;3.70;3.40;;;;;;;26.47;68.90;100862.20;106986;1255;25490;-52
2023/08/03 02:12:50;;;;;;;4.80;3.40;;;;;;;26.47;68.81;100863.13;106966;1265;22523;-51
2023/08/03 02:15:17;;;;;;;15.70;5.90;;;;;;;26.47;68.94;100863.45;106915;1263;25369;-52
2023/08/03 02:17:44;;;;;;;6.90;4.50;;;;;;;26.46;69.18;100867.27;107006;1254;25365;-52
2023/08/03 02:20:12;;;;;;;3.80;3.40;;;;;;;26.46;69.17;100868.88;106804;1257;25341;-52
2023/08/03 02:22:39;;;;;;;6.60;4.10;;;;;;;26.44;69.17;100868.11;106933;1256;22579;-53
2023/08/03 02:25:08;;;;;;;5.00;3.50;;;;;;;26.43;69.38;100867.74;106591;1266;22517;-52
2023/08/03 02:27:35;;;;;;;6.50;4.00;;;;;;;26.42;69.64;100866.93;107202;1261;25513;-51
2023/08/03 02:30:03;;;;;;;4.50;3.70;;;;;;;26.40;69.70;100865.27;107144;1263;25356;-51
2023/08/03 02:32:30;;;;;;;4.20;3.70;;;;;;;26.40;69.97;100869.91;107215;1260;25475;-52
2023/08/03 02:34:58;;;;;;;6.30;4.10;;;;;;;26.42;69.87;100869.45;107153;1267;25337;-52
2023/08/03 02:37:26;;;;;;;6.80;4.10;;;;;;;26.44;69.91;100866.90;107078;1253;25518;-52
2023/08/03 02:39:53;;;;;;;5.50;3.90;;;;;;;26.45;70.01;100866.61;107287;1263;25359;-52
2023/08/03 02:42:22;;;;;;;5.70;3.40;;;;;;;26.45;69.88;100871.23;107110;1260;22530;-52
2023/08/03 02:44:49;;;;;;;4.50;4.10;;;;;;;26.45;69.87;100873.98;107152;1263;25366;-52
2023/08/03 02:47:16;;;;;;;5.90;3.70;;;;;;;26.43;69.99;100876.78;107138;1257;25331;-52
2023/08/03 02:49:44;;;;;;;8.20;3.80;;;;;;;26.42;70.24;100878.97;107205;1263;25340;-52
2023/08/03 02:52:12;;;;;;;5.30;4.00;;;;;;;26.42;70.32;100881.27;107202;1267;25392;-52
2023/08/03 02:54:43;;;;;;;4.90;4.00;;;;;;;26.44;70.22;100882.75;107102;1253;25366;-53
2023/08/03 02:57:10;;;;;;;5.30;4.40;;;;;;;26.45;70.16;100890.17;107129;1266;25521;-52
2023/08/03 02:59:37;;;;;;;4.80;4.40;;;;;;;26.44;70.25;100893.77;107074;1266;25366;-52
2023/08/03 03:02:05;;;;;;;6.30;4.60;;;;;;;26.44;70.26;100891.45;107038;1263;25481;-52
2023/08/03 03:04:33;;;;;;;6.40;4.50;;;;;;;26.44;70.44;100893.45;107102;1266;22531;-52
2023/08/03 03:07:01;;;;;;;5.80;4.80;;;;;;;26.44;70.39;100895.02;106995;1269;25341;-52
2023/08/03 03:09:28;;;;;;;5.00;3.60;;;;;;;26.46;70.44;100899.87;107106;1263;25356;-52
2023/08/03 03:11:56;;;;;;;5.30;4.20;;;;;;;26.48;70.26;100898.80;107084;1263;25545;-51
2023/08/03 03:14:23;;;;;;;4.80;4.10;;;;;;;26.50;70.14;100897.88;107108;1263;25360;-52
2023/08/03 03:16:50;;;;;;;4.80;4.30;;;;;;;26.53;70.28;100898.67;107004;1254;25480;-52
2023/08/03 03:19:18;;;;;;;5.00;3.70;;;;;;;26.54;69.98;100902.66;106998;1265;25340;-52
2023/08/03 03:21:45;;;;;;;4.00;3.60;;;;;;;26.53;70.06;100908.42;107118;1263;25340;-52
2023/08/03 03:24:12;;;;;;;5.20;4.50;;;;;;;26.55;69.94;100914.15;107081;1263;25433;-52
2023/08/03 03:26:40;;;;;;;5.10;4.30;;;;;;;26.57;69.96;100911.51;107220;1269;25340;-52
2023/08/03 03:29:07;;;;;;;5.10;4.10;;;;;;;26.57;70.05;100916.61;107141;1260;25328;-52
2023/08/03 03:31:34;;;;;;;8.60;4.90;;;;;;;26.57;70.10;100914.14;107130;1251;25474;-52
2023/08/03 03:34:02;;;;;;;5.30;4.30;;;;;;;26.58;70.42;100914.99;107141;1250;25450;-52
2023/08/03 03:36:30;;;;;;;6.30;4.10;;;;;;;26.57;70.72;100916.66;107157;1263;25474;-52
2023/08/03 03:38:57;;;;;;;5.60;4.20;;;;;;;26.58;70.84;100919.45;107069;1266;24365;-52
2023/08/03 03:41:24;;;;;;;5.10;4.00;;;;;;;26.58;70.88;100924.76;107161;1267;25414;-52
2023/08/03 03:43:51;;;;;;;4.70;3.70;;;;;;;26.58;71.00;100927.02;107141;1263;25365;-52
2023/08/03 03:46:18;;;;;;;5.70;4.40;;;;;;;26.60;71.18;100928.65;107023;1269;25420;-52
2023/08/03 03:48:45;;;;;;;4.30;3.90;;;;;;;26.61;71.31;100931.05;107001;1261;23899;-52
2023/08/03 03:51:15;;;;;;;4.60;3.70;;;;;;;26.64;71.43;100936.52;106985;1262;22527;-53
2023/08/03 03:53:42;;;;;;;5.40;4.00;;;;;;;26.66;71.47;100944.56;106813;1263;25369;-52
2023/08/03 03:56:11;;;;;;;5.80;3.70;;;;;;;26.65;71.58;100944.92;106922;1263;25405;-52
2023/08/03 03:58:38;;;;;;;5.90;3.50;;;;;;;26.64;71.72;100942.55;107119;1254;25449;-52
2023/08/03 04:01:05;;;;;;;4.90;3.30;;;;;;;26.65;71.78;100946.89;107031;1260;22521;-52
2023/08/03 04:03:32;;;;;;;6.40;3.50;;;;;;;26.67;71.82;100947.84;107165;1263;25359;-52
2023/08/03 04:06:03;;;;;;;5.80;3.90;;;;;;;26.68;71.73;100945.23;107162;1262;22598;-52
2023/08/03 04:08:30;;;;;;;4.90;4.40;;;;;;;26.70;71.80;100948.30;106807;1263;25347;-52
2023/08/03 04:10:57;;;;;;;6.00;3.50;;;;;;;26.72;71.87;100951.52;107148;1266;25456;-52
2023/08/03 04:13:24;;;;;;;6.10;4.30;;;;;;;26.76;71.94;100950.79;107125;1267;25491;-53
2023/08/03 04:15:51;;;;;;;5.70;5.00;;;;;;;26.82;71.82;100957.00;107045;1263;22521;-52
2023/08/03 04:18:18;;;;;;;6.50;4.30;;;;;;;26.85;71.73;100956.05;107048;1267;24455;-51
2023/08/03 04:20:45;;;;;;;6.90;4.70;;;;;;;26.89;71.86;100960.36;107055;1270;25340;-51
2023/08/03 04:23:12;;;;;;;8.20;5.00;;;;;;;26.92;71.87;100965.95;107170;1257;25433;-51
2023/08/03 04:25:40;;;;;;;4.80;4.20;;;;;;;26.94;72.00;100966.13;107194;1264;25341;-52
2023/08/03 04:28:15;;;;;;;4.20;3.70;;;;;;;26.96;71.76;100963.49;107199;1254;25385;-52
2023/08/03 04:30:42;;;;;;;6.10;4.00;;;;;;;26.96;71.95;100958.65;107218;1260;25337;-52
2023/08/03 04:33:11;;;;;;;5.50;5.00;;;;;;;26.97;72.03;100951.80;107059;1266;25366;-52
2023/08/03 04:35:40;;;;;;;6.30;4.10;;;;;;;26.97;71.95;100948.44;107153;1263;22520;-52
2023/08/03 04:38:11;;;;;;;7.30;5.00;;;;;;;26.98;72.09;100949.98;107165;1263;22525;-51
2023/08/03 04:40:43;;;;;;;6.40;3.80;;;;;;;26.99;71.96;100952.90;107048;1256;22524;-52
2023/08/03 04:43:10;;;;;;;7.50;5.00;;;;;;;26.99;71.98;100954.62;106679;1270;25337;-52
2023/08/03 04:45:36;;;;;;;5.70;4.30;;;;;;;27.01;71.82;100957.52;106869;1270;23867;-51
2023/08/03 04:48:04;;;;;;;4.70;4.30;;;;;;;27.01;71.94;100962.84;107130;1263;25331;-52
2023/08/03 04:50:32;;;;;;;6.80;4.80;;;;;;;27.03;72.19;100966.23;107184;1253;22636;-51
2023/08/03 04:52:59;;;;;;;5.40;4.60;;;;;;;27.05;72.09;100969.44;107118;1263;25525;-52
2023/08/03 04:55:26;;;;;;;6.90;5.00;;;;;;;27.06;72.31;100977.88;107231;1260;25347;-51
2023/08/03 04:57:53;;;;;;;6.00;5.30;;;;;;;27.07;72.27;100981.55;107084;1263;25341;-51
2023/08/03 05:00:22;;;;;;;6.20;4.70;;;;;;;27.09;72.27;100988.52;106821;1262;22523;-52
2023/08/03 05:02:50;;;;;;;6.50;4.40;;;;;;;27.12;72.41;100993.71;107096;1263;25418;-51
2023/08/03 05:05:16;;;;;;;5.50;4.70;;;;;;;27.17;72.13;100996.55;107091;1253;25482;-52
2023/08/03 05:07:45;;;;;;;6.10;5.00;;;;;;;27.20;71.79;100998.05;106932;1273;26499;-51
2023/08/03 05:10:12;;;;;;;6.10;4.30;;;;;;;27.24;71.55;100997.45;107143;1266;25331;-51
2023/08/03 05:12:41;;;;;;;8.20;4.90;;;;;;;27.29;71.38;100999.92;107137;1251;25420;-52
2023/08/03 05:15:09;;;;;;;6.10;4.80;;;;;;;27.34;70.91;101005.55;106944;1270;25488;-52
2023/08/03 05:17:37;;;;;;;6.60;4.40;;;;;;;27.39;70.81;101007.79;106987;1257;25404;-52
2023/08/03 05:20:05;;;;;;;7.00;5.10;;;;;;;27.44;70.36;101008.09;106890;1266;25468;-52
2023/08/03 05:22:34;;;;;;;6.30;4.60;;;;;;;27.46;69.82;101011.66;106860;1269;22540;-51
2023/08/03 05:25:01;;;;;;;5.90;4.60;;;;;;;27.47;69.28;101010.66;106977;1260;25399;-52
2023/08/03 05:27:28;;;;;;;5.40;4.90;;;;;;;27.46;68.87;101012.32;107041;1270;25517;-52
2023/08/03 05:29:58;;;;;;;11.00;5.40;;;;;;;27.47;68.91;101017.77;106965;1267;25362;-51
2023/08/03 05:32:25;;;;;;;5.90;4.90;;;;;;;27.52;69.10;101019.83;106965;1257;25405;-52
2023/08/03 05:34:52;;;;;;;6.90;5.00;;;;;;;27.59;68.93;101017.58;106817;1257;25217;-52
2023/08/03 05:37:19;;;;;;;5.80;5.00;;;;;;;27.64;68.74;101021.61;106809;1269;25392;-53
2023/08/03 05:39:46;;;;;;;7.00;5.30;;;;;;;27.66;68.52;101018.06;106744;1269;25484;-52
2023/08/03 05:42:14;;;;;;;6.40;5.70;;;;;;;27.67;68.61;101022.42;106927;1259;25353;-52
2023/08/03 05:44:41;;;;;;;7.90;5.90;;;;;;;27.70;68.80;101018.78;106846;1260;25411;-52
2023/08/03 05:47:09;;;;;;;9.70;5.20;;;;;;;27.75;68.32;101021.54;107067;1266;25340;-52
2023/08/03 05:49:37;;;;;;;9.00;6.00;;;;;;;27.80;67.44;101017.86;107096;1267;22563;-52
2023/08/03 05:52:05;;;;;;;9.40;5.60;;;;;;;27.85;67.28;101021.61;107125;1260;25394;-52
2023/08/03 05:54:32;;;;;;;8.50;6.00;;;;;;;27.94;67.42;101021.05;107137;1254;25337;-51
2023/08/03 05:56:59;;;;;;;6.70;6.00;;;;;;;28.03;67.42;101016.83;107090;1269;25322;-52
2023/08/03 05:59:26;;;;;;;10.00;6.30;;;;;;;28.13;67.19;101016.04;107051;1251;25348;-50
2023/08/03 06:01:53;;;;;;;7.00;5.60;;;;;;;28.21;66.90;101018.41;107131;1264;25345;-52
2023/08/03 06:04:20;;;;;;;7.50;6.50;;;;;;;28.28;66.65;101019.21;107146;1266;25433;-52
2023/08/03 06:06:47;;;;;;;10.00;6.20;;;;;;;28.33;66.55;101015.63;107169;1267;25548;-52
2023/08/03 06:09:15;;;;;;;8.50;6.60;;;;;;;28.43;66.44;101013.13;107070;1263;25341;-52
2023/08/03 06:11:42;;;;;;;9.20;6.90;;;;;;;28.55;66.14;101015.54;107073;1261;22538;-52
2023/08/03 06:14:13;;;;;;;9.60;6.20;;;;;;;28.66;65.75;101012.78;107168;1264;25525;-52
2023/08/03 06:16:42;;;;;;;7.20;6.50;;;;;;;28.77;65.33;101011.70;107164;1257;25418;-51
2023/08/03 06:19:09;;;;;;;11.80;6.00;;;;;;;28.85;64.87;101014.65;107126;1253;25217;-52
2023/08/03 06:21:36;;;;;;;6.50;5.90;;;;;;;28.92;64.73;101020.59;107256;1263;25337;-52
2023/08/03 06:24:03;;;;;;;7.10;6.40;;;;;;;28.99;64.30;101024.27;107114;1267;25331;-52
2023/08/03 06:26:32;;;;;;;6.50;5.90;;;;;;;29.04;64.15;101024.73;106914;1260;25490;-53
2023/08/03 06:29:00;;;;;;;8.30;6.20;;;;;;;29.10;63.97;101026.66;106738;1266;25288;-52
2023/08/03 06:31:35;;;;;;;8.50;6.50;;;;;;;29.16;63.53;101030.77;106713;1266;25334;-52
2023/08/03 06:34:02;;;;;;;6.40;5.70;;;;;;;29.17;63.14;101035.09;106859;1257;22752;-52
2023/08/03 06:36:29;;;;;;;6.10;5.50;;;;;;;29.17;62.83;101031.20;106860;1268;25484;-52
2023/08/03 06:38:57;;;;;;;7.70;7.00;;;;;;;29.16;62.77;101028.64;107066;1263;25347;-52
2023/08/03 06:41:24;;;;;;;5.90;5.40;;;;;;;29.14;62.72;101026.98;107087;1253;22620;-52
2023/08/03 06:43:52;;;;;;;7.40;6.70;;;;;;;29.13;62.72;101023.20;107159;1262;25337;-52
2023/08/03 06:46:19;;;;;;;6.50;6.00;;;;;;;29.11;62.77;101023.30;107101;1263;22542;-53
2023/08/03 06:48:46;;;;;;;5.00;4.60;;;;;;;29.09;62.70;101026.92;107104;1267;25363;-52
2023/08/03 06:51:13;;;;;;;6.30;5.30;;;;;;;29.09;63.03;101030.91;107124;1267;25490;-52
2023/08/03 06:53:40;;;;;;;5.90;5.40;;;;;;;29.11;63.29;101026.42;107245;1261;25347;-53
2023/08/03 06:56:07;;;;;;;6.20;5.50;;;;;;;29.16;63.43;101029.65;107088;1253;25414;-52
2023/08/03 06:58:35;;;;;;;5.80;5.30;;;;;;;29.24;63.31;101029.42;107128;1263;25367;-51
2023/08/03 07:01:02;;;;;;;6.10;5.00;;;;;;;29.32;62.91;101026.39;107140;1263;25350;-51
2023/08/03 07:03:30;;;;;;;5.40;4.60;;;;;;;29.37;62.74;101023.16;107133;1267;25347;-51
2023/08/03 07:05:57;;;;;;;6.50;4.20;;;;;;;29.43;62.54;101022.74;107237;1263;25281;-52
2023/08/03 07:08:24;;;;;;;4.40;4.00;;;;;;;29.50;62.60;101026.13;107212;1263;22636;-52
2023/08/03 07:10:51;;;;;;;4.40;4.00;;;;;;;29.59;62.48;101031.17;107063;1259;22532;-51
2023/08/03 07:13:18;;;;;;;5.20;4.70;;;;;;;29.74;62.18;101033.11;106965;1266;23229;-52
2023/08/03 07:15:45;;;;;;;5.50;5.00;;;;;;;29.91;61.64;101034.31;107042;1266;25332;-52
2023/08/03 07:18:12;;;;;;;4.80;4.40;;;;;;;30.12;61.27;101029.85;107071;1266;25481;-52
2023/08/03 07:20:39;;;;;;;4.10;3.70;;;;;;;30.38;60.51;101025.77;107017;1266;25379;-52
2023/08/03 07:23:07;;;;;;;2.80;2.60;;;;;;;30.68;59.32;101026.60;106799;1270;25372;-52
2023/08/03 07:25:34;;;;;;;4.20;3.70;;;;;;;30.88;58.17;101031.48;107074;1270;25331;-52
2023/08/03 07:28:02;;;;;;;3.20;2.90;;;;;;;31.03;57.46;101031.36;107014;1266;25490;-52
2023/08/03 07:30:29;;;;;;;4.70;3.00;;;;;;;31.18;57.01;101029.95;106651;1274;25401;-52
2023/08/03 07:32:59;;;;;;;3.30;2.60;;;;;;;31.29;56.39;101032.02;106990;1269;25331;-52
2023/08/03 07:35:26;;;;;;;4.30;2.50;;;;;;;31.33;55.88;101031.01;107052;1270;25485;-52
2023/08/03 07:37:53;;;;;;;2.60;2.40;;;;;;;31.36;55.64;101030.61;106964;1270;25319;-52
2023/08/03 07:40:21;;;;;;;3.80;2.60;;;;;;;31.35;55.72;101030.11;106728;1269;25359;-53
2023/08/03 07:42:48;;;;;;;3.30;3.00;;;;;;;31.29;55.49;101032.36;107178;1260;25356;-52
2023/08/03 07:45:15;;;;;;;3.20;2.40;;;;;;;31.22;55.90;101033.84;106936;1266;25369;-52
2023/08/03 07:48:02;;;;;;;5.30;3.20;;;;;;;31.15;56.12;101032.81;107106;1263;25341;-52
2023/08/03 07:50:29;;;;;;;4.00;2.60;;;;;;;31.07;56.10;101026.77;107204;1262;25478;-52
2023/08/03 07:52:56;;;;;;;4.60;3.00;;;;;;;31.01;56.18;101029.20;107161;1266;25337;-52
2023/08/03 07:55:23;;;;;;;5.50;3.60;;;;;;;30.98;56.65;101032.73;107117;1267;25356;-52
2023/08/03 07:57:49;;;;;;;4.30;3.10;;;;;;;30.98;56.65;101032.80;107004;1269;25372;-52
2023/08/03 08:00:17;;;;;;;3.20;2.80;;;;;;;30.98;56.93;101032.77;107008;1273;24230;-51
2023/08/03 08:02:44;;;;;;;2.80;2.30;;;;;;;30.97;56.95;101033.84;107139;1263;25436;-51
2023/08/03 08:05:11;;;;;;;3.80;3.10;;;;;;;30.93;56.94;101035.23;107094;1273;25532;-51
2023/08/03 08:07:38;;;;;;;5.10;2.80;;;;;;;30.89;56.99;101034.45;107161;1254;25331;-50
2023/08/03 08:10:06;;;;;;;4.90;2.60;;;;;;;30.81;57.24;101037.71;107195;1257;25341;-50
2023/08/03 08:12:33;;;;;;;4.20;2.70;;;;;;;30.77;57.48;101033.52;107135;1263;22520;-51
2023/08/03 08:14:59;;;;;;;5.60;2.70;;;;;;;30.77;57.62;101033.19;107050;1273;22530;-50
2023/08/03 08:17:26;;;;;;;6.40;3.00;;;;;;;30.79;57.37;101038.65;107063;1267;25366;-50
2023/08/03 08:19:56;;;;;;;5.20;3.20;;;;;;;30.83;57.36;101042.17;107098;1253;25369;-50
2023/08/03 08:22:23;;;;;;;3.30;2.80;;;;;;;30.88;57.28;101046.59;107180;1260;25321;-50
2023/08/03 08:24:51;;;;;;;4.20;3.10;;;;;;;30.90;57.36;101046.70;107155;1264;25369;-50
2023/08/03 08:27:18;;;;;;;5.90;3.70;;;;;;;30.92;57.15;101047.88;107198;1257;25331;-49
2023/08/03 08:29:46;;;;;;;4.70;3.10;;;;;;;30.93;57.05;101048.39;107218;1264;25365;-50
2023/08/03 08:32:13;;;;;;;3.80;3.50;;;;;;;30.94;57.22;101046.83;106998;1273;25346;-50
2023/08/03 08:34:40;;;;;;;5.30;3.30;;;;;;;30.94;56.87;101045.88;107139;1268;23851;-50
2023/08/03 08:37:07;;;;;;;4.90;3.40;;;;;;;30.93;56.75;101046.40;107151;1253;25328;-51
2023/08/03 08:39:34;;;;;;;6.50;3.70;;;;;;;30.90;56.76;101046.55;107181;1253;25405;-50
2023/08/03 08:42:15;;;;;;;4.30;3.30;;;;;;;30.85;56.76;101047.61;106958;1270;25405;-50
2023/08/03 08:44:41;;;;;;;3.80;3.20;;;;;;;30.80;56.88;101049.10;107039;1254;22645;-50
2023/08/03 08:47:08;;;;;;;4.30;3.50;;;;;;;30.76;57.04;101052.02;106681;1265;25859;-50
2023/08/03 08:49:36;;;;;;;5.50;3.40;;;;;;;30.73;57.45;101050.73;106606;1272;25373;-50
2023/08/03 08:52:06;;;;;;;6.20;3.30;;;;;;;30.75;57.59;101053.63;107051;1267;25343;-51
2023/08/03 08:54:34;;;;;;;4.20;3.20;;;;;;;30.78;57.80;101058.15;106900;1257;24201;-50
2023/08/03 08:57:05;;;;;;;5.60;3.20;;;;;;;30.80;57.35;101061.86;106999;1266;25331;-51
2023/08/03 09:00:05;;;;;;;5.10;3.00;;;;;;;30.79;57.24;101066.61;107011;1265;25343;-50
2023/08/03 09:02:32;;;;;;;5.30;3.70;;;;;;;30.75;57.30;101070.83;107181;1262;25328;-50
2023/08/03 09:05:10;;;;;;;5.20;3.40;;;;;;;30.70;57.41;101071.52;106858;1270;25359;-50
2023/08/03 09:07:37;;;;;;;5.60;3.70;;;;;;;30.66;57.48;101074.45;107186;1254;25347;-50
2023/08/03 09:10:05;;;;;;;4.50;3.80;;;;;;;30.63;57.73;101071.48;107142;1263;25490;-50
2023/08/03 09:12:32;;;;;;;4.40;3.80;;;;;;;30.62;57.89;101067.84;107156;1251;25356;-50
2023/08/03 09:14:59;;;;;;;5.80;4.40;;;;;;;30.61;57.87;101062.93;107080;1254;25490;-50
2023/08/03 09:17:27;;;;;;;6.40;3.80;;;;;;;30.63;57.91;101060.93;107098;1257;25369;-50
2023/08/03 09:19:54;;;;;;;5.80;4.00;;;;;;;30.62;58.00;101062.23;107012;1267;25351;-50
2023/08/03 09:22:25;;;;;;;6.80;4.20;;;;;;;30.64;58.09;101058.00;107094;1266;25481;-50
2023/08/03 09:25:06;;;;;;;7.70;4.40;;;;;;;30.65;58.20;101060.15;107128;1255;25378;-50
2023/08/03 09:27:34;;;;;;;6.90;4.70;;;;;;;30.65;58.10;101059.62;107132;1255;24259;-49
2023/08/03 09:30:04;;;;;;;5.00;4.60;;;;;;;30.62;58.15;101056.14;107121;1250;24214;-50
2023/08/03 09:32:42;;;;;;;6.60;4.50;;;;;;;30.62;58.29;101055.47;107124;1267;25347;-50
2023/08/03 09:35:15;;;;;;;6.90;3.80;;;;;;;30.62;58.46;101059.45;107268;1255;23910;-50
2023/08/03 09:37:42;;;;;;;5.90;3.70;;;;;;;30.62;58.63;101060.72;107119;1253;22641;-50
2023/08/03 09:40:13;;;;;;;5.10;3.80;;;;;;;30.64;58.89;101062.12;107148;1258;25490;-50
2023/08/03 09:42:40;;;;;;;5.90;3.60;;;;;;;30.66;58.95;101063.83;107207;1264;25350;-51
2023/08/03 09:45:08;;;;;;;4.20;3.50;;;;;;;30.68;59.04;101064.67;107186;1254;25491;-50
2023/08/03 09:47:56;;;;;;;5.80;4.10;;;;;;;30.71;59.13;101066.52;107036;1267;25359;-50
2023/08/03 09:50:23;;;;;;;5.40;3.20;;;;;;;30.73;59.18;101064.56;107009;1255;25481;-50
2023/08/03 09:52:50;;;;;;;5.20;3.90;;;;;;;30.74;59.27;101065.38;106847;1267;25378;-50
2023/08/03 09:55:23;;;;;;;7.70;4.20;;;;;;;30.77;59.22;101066.48;107047;1258;25491;-51
2023/08/03 09:58:03;;;;;;;5.80;3.70;;;;;;;30.79;59.14;101067.84;107040;1266;25252;-50
2023/08/03 10:00:30;;;;;;;4.40;3.30;;;;;;;30.83;59.03;101064.45;107233;1254;25408;-50
2023/08/03 10:03:10;;;;;;;5.10;3.20;;;;;;;30.86;59.22;101067.85;107154;1258;25359;-50
2023/08/03 10:05:44;;;;;;;5.10;3.50;;;;;;;30.91;59.13;101071.82;107265;1263;24356;-50
2023/08/03 10:08:53;;;;;;;4.80;3.30;;;;;;;30.95;58.75;101074.11;107138;1254;25334;-50
2023/08/03 10:11:20;;;;;;;4.80;3.60;;;;;;;30.99;58.65;101076.97;106559;1264;25344;-50
2023/08/03 10:13:47;;;;;;;3.50;2.60;;;;;;;31.00;58.80;101075.95;106646;1264;25362;-50
2023/08/03 10:16:14;;;;;;;3.60;2.80;;;;;;;31.02;58.97;101069.81;106211;1264;22552;-51
2023/08/03 10:18:42;;;;;;;4.90;3.00;;;;;;;31.05;58.84;101067.68;106246;1261;24231;-50
2023/08/03 10:21:26;;;;;;;4.70;2.80;;;;;;;31.07;58.52;101061.92;106047;1273;25412;-50
2023/08/03 10:24:18;;;;;;;3.50;2.60;;;;;;;31.04;58.55;101057.38;106050;1282;24249;-50
2023/08/03 10:26:54;;;;;;;6.00;2.90;;;;;;;31.10;58.52;101052.48;106164;1275;25382;-50
2023/08/03 10:29:56;;;;;;;4.60;2.40;;;;;;;31.13;58.86;101051.79;106582;1267;24398;-50
2023/08/03 10:32:29;;;;;;;3.80;2.40;;;;;;;31.18;58.70;101055.95;106582;1264;25353;-50
2023/08/03 10:34:58;;;;;;;3.80;2.40;;;;;;;31.18;58.40;101049.14;106441;1260;25434;-51
2023/08/03 10:37:25;;;;;;;5.00;2.60;;;;;;;31.15;58.68;101051.94;106645;1273;25331;-51
2023/08/03 10:39:59;;;;;;;2.50;2.00;;;;;;;31.13;58.97;101052.13;106589;1266;22755;-50
2023/08/03 10:42:32;;;;;;;2.60;2.30;;;;;;;31.13;59.23;101053.04;106357;1274;25380;-50
2023/08/03 10:45:21;;;;;;;5.90;2.00;;;;;;;31.16;59.12;101050.60;106777;1267;22533;-50
2023/08/03 10:47:49;;;;;;;2.70;1.90;;;;;;;31.18;59.31;101051.04;107133;1258;25493;-50
2023/08/03 10:50:16;;;;;;;3.70;2.00;;;;;;;31.19;59.47;101056.16;107310;1253;25372;-50
2023/08/03 10:52:43;;;;;;;3.60;2.10;;;;;;;31.21;59.44;101056.31;106880;1267;25388;-51
2023/08/03 10:55:27;;;;;;;3.30;2.20;;;;;;;31.24;59.74;101059.59;107071;1260;25321;-50
2023/08/03 10:57:55;;;;;;;5.60;2.60;;;;;;;31.31;59.45;101057.65;107073;1251;22527;-50
2023/08/03 11:00:22;;;;;;;3.20;2.10;;;;;;;31.39;58.98;101058.63;107126;1262;24209;-50
2023/08/03 11:02:49;;;;;;;3.70;2.20;;;;;;;31.48;58.70;101058.04;107097;1251;25412;-51
2023/08/03 11:05:17;;;;;;;2.70;2.30;;;;;;;31.55;58.45;101055.59;107097;1267;25345;-51
2023/08/03 11:07:45;;;;;;;2.90;2.60;;;;;;;31.63;58.03;101055.33;107153;1254;25359;-50
2023/08/03 11:10:14;;;;;;;6.10;2.10;;;;;;;31.70;57.87;101053.36;107097;1264;24234;-51
2023/08/03 11:12:41;;;;;;;2.30;1.90;;;;;;;31.74;57.70;101058.27;107092;1254;22523;-51
2023/08/03 11:15:09;;;;;;;2.80;1.90;;;;;;;31.77;57.47;101058.82;107159;1264;22639;-51
2023/08/03 11:17:37;;;;;;;4.00;2.30;;;;;;;31.80;57.25;101056.14;107142;1253;25265;-50
2023/08/03 11:20:07;;;;;;;2.30;2.10;;;;;;;31.82;56.96;101057.80;106865;1261;25401;-51
2023/08/03 11:22:34;;;;;;;2.80;2.10;;;;;;;31.82;57.09;101057.59;107214;1253;22532;-51
2023/08/03 11:25:04;;;;;;;6.60;2.50;;;;;;;31.79;57.50;101057.88;107144;1254;25350;-50